Time;durP1;ratioP1;P1;durP2;ratioP2;P2;SDS_P1;SDS_P2;PMS_P1;PMS_P2;Temp;Humidity;BMP_temperature;BMP_pressure;BME280_temperature;BME280_humidity;BME280_pressure;Samples;Min_cycle;Max_cycle;Signal;HPM_P1;HPM_P2
2023/12/27 00:00:40;;;;;;;3.20;1.90;;;15.90;62.30;;;;;;5114382;28;20706;-68
2023/12/27 00:03:05;;;;;;;3.53;1.98;;;15.90;62.20;;;;;;5115098;28;20170;-67
2023/12/27 00:05:31;;;;;;;2.55;2.08;;;15.80;62.10;;;;;;5115037;28;20169;-69
2023/12/27 00:07:56;;;;;;;2.08;1.90;;;15.80;62.10;;;;;;5114666;28;20583;-68
2023/12/27 00:10:22;;;;;;;2.22;1.90;;;15.90;62.10;;;;;;5114661;28;20700;-67
2023/12/27 00:12:47;;;;;;;2.28;2.00;;;15.90;62.10;;;;;;5115057;28;20185;-67
2023/12/27 00:15:13;;;;;;;4.22;2.30;;;15.90;62.20;;;;;;5114262;28;20173;-67
2023/12/27 00:17:38;;;;;;;3.78;2.13;;;15.80;62.10;;;;;;5114800;28;20176;-67
2023/12/27 00:20:04;;;;;;;2.47;2.28;;;15.80;62.10;;;;;;5114928;28;20603;-67
2023/12/27 00:22:30;;;;;;;2.45;2.10;;;15.80;62.00;;;;;;5112927;28;20192;-67
2023/12/27 00:24:55;;;;;;;2.65;1.92;;;15.80;62.10;;;;;;5114633;28;20196;-67
2023/12/27 00:27:21;;;;;;;2.25;2.00;;;15.80;61.90;;;;;;5114275;28;20169;-67
2023/12/27 00:29:46;;;;;;;2.55;2.10;;;15.80;62.00;;;;;;5113985;28;20184;-68
2023/12/27 00:32:12;;;;;;;3.45;2.42;;;15.80;62.10;;;;;;5114466;28;20184;-67
2023/12/27 00:34:38;;;;;;;2.25;2.00;;;15.80;62.10;;;;;;5114199;28;20177;-68
2023/12/27 00:37:03;;;;;;;3.42;2.55;;;15.80;62.10;;;;;;5114021;28;20180;-68
2023/12/27 00:39:29;;;;;;;2.78;2.35;;;15.80;61.90;;;;;;5114193;28;20197;-67
2023/12/27 00:41:55;;;;;;;2.33;2.08;;;15.80;62.00;;;;;;5114350;28;20184;-68
2023/12/27 00:44:20;;;;;;;2.60;2.40;;;15.80;62.00;;;;;;5113312;28;20675;-67
2023/12/27 00:46:46;;;;;;;3.42;2.38;;;15.70;62.00;;;;;;5114151;28;20560;-68
2023/12/27 00:49:12;;;;;;;3.33;2.30;;;15.70;62.10;;;;;;5114430;28;20180;-68
2023/12/27 00:51:37;;;;;;;2.97;2.60;;;15.70;61.90;;;;;;5113152;28;20647;-68
2023/12/27 00:54:03;;;;;;;3.22;2.58;;;15.70;62.00;;;;;;5113919;28;20229;-67
2023/12/27 00:56:28;;;;;;;2.75;2.53;;;15.70;61.90;;;;;;5113214;28;20179;-67
2023/12/27 00:58:54;;;;;;;3.35;2.72;;;15.70;62.00;;;;;;5113973;28;20207;-68
2023/12/27 01:01:20;;;;;;;3.45;2.33;;;15.70;61.80;;;;;;5113435;28;20173;-67
2023/12/27 01:03:45;;;;;;;3.70;2.42;;;15.70;61.90;;;;;;5112904;28;20246;-67
2023/12/27 01:06:11;;;;;;;3.35;2.72;;;15.70;61.80;;;;;;5112473;28;20180;-68
2023/12/27 01:08:37;;;;;;;2.85;2.53;;;15.70;61.90;;;;;;5113738;28;20176;-67
2023/12/27 01:11:03;;;;;;;3.33;2.35;;;15.60;61.80;;;;;;5113072;28;20177;-67
2023/12/27 01:13:28;;;;;;;3.88;2.28;;;15.60;61.70;;;;;;5113315;28;20596;-67
2023/12/27 01:15:55;;;;;;;3.35;2.60;;;15.60;61.80;;;;;;5113731;28;20173;-67
2023/12/27 01:18:20;;;;;;;3.03;2.45;;;15.60;61.90;;;;;;5112699;28;20196;-67
2023/12/27 01:20:46;;;;;;;3.53;2.75;;;15.60;62.60;;;;;;5113642;28;20236;-67
2023/12/27 01:23:12;;;;;;;2.95;2.65;;;15.60;61.80;;;;;;5113700;28;20261;-67
2023/12/27 01:25:37;;;;;;;2.40;2.20;;;15.60;61.90;;;;;;5112631;28;20222;-67
2023/12/27 01:28:03;;;;;;;3.03;2.60;;;15.60;61.80;;;;;;5112621;28;20591;-68
2023/12/27 01:30:29;;;;;;;2.63;2.38;;;15.60;61.80;;;;;;5113002;28;20173;-68
2023/12/27 01:32:55;;;;;;;2.60;2.20;;;15.60;61.90;;;;;;5112545;28;20581;-68
2023/12/27 01:35:21;;;;;;;4.68;2.78;;;15.60;61.80;;;;;;5113188;28;20177;-68
2023/12/27 01:37:46;;;;;;;2.60;2.40;;;15.60;61.80;;;;;;5113435;28;20173;-68
2023/12/27 01:40:12;;;;;;;3.10;2.17;;;15.60;61.80;;;;;;5112674;28;20216;-68
2023/12/27 01:42:38;;;;;;;3.20;2.20;;;15.60;61.90;;;;;;5112988;28;20518;-68
2023/12/27 01:45:05;;;;;;;2.30;2.10;;;15.60;61.90;;;;;;5113003;28;20577;-68
2023/12/27 01:47:36;;;;;;;2.70;2.33;;;15.50;61.90;;;;;;5110891;28;20173;-68
2023/12/27 01:50:03;;;;;;;2.80;2.30;;;15.50;61.80;;;;;;5113092;28;20674;-68
2023/12/27 01:52:28;;;;;;;2.92;2.05;;;15.50;61.70;;;;;;5112726;28;20221;-68
2023/12/27 01:54:54;;;;;;;2.28;2.08;;;15.50;61.70;;;;;;5112461;28;20177;-67
2023/12/27 01:57:19;;;;;;;2.35;2.08;;;15.50;61.80;;;;;;5094424;28;20165;-68
2023/12/27 01:59:45;;;;;;;2.38;1.90;;;15.50;61.70;;;;;;5093962;28;20200;-68
2023/12/27 02:02:11;;;;;;;2.38;2.00;;;15.50;61.70;;;;;;5113142;28;20214;-67
2023/12/27 02:04:36;;;;;;;1.90;1.80;;;15.50;61.70;;;;;;5094476;28;20185;-67
2023/12/27 02:07:02;;;;;;;3.60;2.30;;;15.50;61.80;;;;;;5112347;28;20207;-68
2023/12/27 02:09:28;;;;;;;1.95;1.77;;;15.50;61.70;;;;;;5077647;28;20579;-67
2023/12/27 02:11:53;;;;;;;3.55;2.35;;;15.50;61.80;;;;;;5094623;28;20521;-67
2023/12/27 02:14:19;;;;;;;2.72;2.28;;;15.50;61.80;;;;;;5111745;28;20659;-67
2023/12/27 02:16:45;;;;;;;3.00;1.95;;;15.50;61.90;;;;;;5112971;28;20675;-68
2023/12/27 02:19:13;;;;;;;3.10;2.45;;;15.50;61.80;;;;;;5112846;28;20608;-66
2023/12/27 02:21:38;;;;;;;2.42;2.22;;;15.40;61.80;;;;;;5093574;28;20169;-66
2023/12/27 02:24:04;;;;;;;2.58;2.00;;;15.50;62.00;;;;;;5112724;28;20203;-67
2023/12/27 02:26:29;;;;;;;2.15;1.95;;;15.50;61.90;;;;;;5077328;28;20168;-67
2023/12/27 02:28:55;;;;;;;3.13;2.28;;;15.40;61.80;;;;;;5093697;28;20169;-68
2023/12/27 02:31:21;;;;;;;3.55;2.50;;;15.40;61.70;;;;;;5077606;28;20200;-68
2023/12/27 02:33:46;;;;;;;3.75;2.33;;;15.40;61.80;;;;;;5112728;28;20173;-68
2023/12/27 02:36:15;;;;;;;2.63;1.92;;;15.40;61.80;;;;;;5093727;28;20268;-67
2023/12/27 02:38:40;;;;;;;2.80;2.13;;;15.40;62.60;;;;;;5112479;28;20176;-67
2023/12/27 02:41:06;;;;;;;3.55;2.42;;;15.40;61.80;;;;;;5112505;28;20181;-67
2023/12/27 02:43:32;;;;;;;2.72;2.47;;;15.40;61.70;;;;;;5111529;28;20614;-67
2023/12/27 02:45:58;;;;;;;3.13;1.95;;;15.40;61.80;;;;;;5115005;28;20187;-68
2023/12/27 02:48:23;;;;;;;2.78;2.30;;;15.40;61.80;;;;;;5116471;28;20169;-68
2023/12/27 02:50:49;;;;;;;2.25;2.05;;;15.40;61.90;;;;;;5115964;28;20260;-67
2023/12/27 02:53:15;;;;;;;2.05;1.95;;;15.40;61.90;;;;;;5116171;28;20303;-68
2023/12/27 02:55:40;;;;;;;2.15;1.90;;;15.40;61.80;;;;;;5116508;28;20173;-68
2023/12/27 02:58:06;;;;;;;3.03;2.30;;;15.30;61.80;;;;;;5115677;28;20707;-67
2023/12/27 03:00:35;;;;;;;2.17;1.98;;;15.40;61.80;;;;;;5116152;28;20216;-67
2023/12/27 03:03:02;;;;;;;2.47;2.28;;;15.40;61.90;;;;;;5115875;28;20178;-67
2023/12/27 03:05:27;;;;;;;2.25;2.05;;;15.30;61.80;;;;;;5115995;28;20627;-67
2023/12/27 03:07:53;;;;;;;3.78;2.80;;;15.40;61.90;;;;;;5116117;28;20176;-67
2023/12/27 03:10:18;;;;;;;3.95;2.33;;;15.30;61.80;;;;;;5115231;28;20615;-67
2023/12/27 03:12:44;;;;;;;3.05;2.15;;;15.30;61.70;;;;;;5116072;28;20169;-67
2023/12/27 03:15:09;;;;;;;2.58;2.38;;;15.30;61.80;;;;;;5116289;28;20570;-66
2023/12/27 03:17:35;;;;;;;3.00;2.50;;;15.30;61.80;;;;;;5115012;28;20648;-67
2023/12/27 03:20:01;;;;;;;2.63;2.30;;;15.30;61.80;;;;;;5115819;28;20244;-67
2023/12/27 03:22:26;;;;;;;3.10;2.38;;;15.30;61.70;;;;;;5115625;28;20208;-67
2023/12/27 03:24:52;;;;;;;3.45;2.25;;;15.30;62.70;;;;;;5115231;28;20185;-67
2023/12/27 03:27:18;;;;;;;2.45;2.25;;;15.30;61.90;;;;;;5115459;28;20290;-67
2023/12/27 03:29:43;;;;;;;2.85;2.40;;;15.30;61.90;;;;;;5116025;28;20268;-68
2023/12/27 03:32:09;;;;;;;3.08;2.53;;;15.30;61.90;;;;;;5115268;28;20252;-67
2023/12/27 03:34:34;;;;;;;2.40;2.20;;;15.30;61.90;;;;;;5115520;28;20168;-68
2023/12/27 03:37:00;;;;;;;3.50;2.30;;;15.30;61.80;;;;;;5115635;28;20169;-67
2023/12/27 03:39:25;;;;;;;2.40;1.95;;;15.30;61.90;;;;;;5114635;28;20204;-67
2023/12/27 03:41:51;;;;;;;2.30;2.10;;;15.30;62.00;;;;;;5115442;28;20186;-67
2023/12/27 03:44:16;;;;;;;2.33;2.13;;;15.20;61.90;;;;;;5115414;28;20196;-68
2023/12/27 03:46:42;;;;;;;2.42;2.22;;;15.20;61.90;;;;;;5114998;28;20559;-68
2023/12/27 03:49:07;;;;;;;2.40;2.10;;;15.30;61.90;;;;;;5115386;28;20628;-68
2023/12/27 03:51:33;;;;;;;2.72;2.15;;;15.20;61.90;;;;;;5115036;28;20185;-68
2023/12/27 03:53:58;;;;;;;2.38;2.17;;;15.20;61.90;;;;;;5114512;28;20233;-67
2023/12/27 03:56:24;;;;;;;2.55;2.33;;;15.20;61.90;;;;;;5114951;28;20173;-67
2023/12/27 03:58:49;;;;;;;2.80;2.38;;;15.20;61.90;;;;;;5115177;28;20511;-68
2023/12/27 04:01:21;;;;;;;2.65;2.45;;;15.20;61.90;;;;;;5114182;28;20173;-67
2023/12/27 04:03:48;;;;;;;2.83;2.47;;;15.20;61.90;;;;;;5115333;28;20175;-68
2023/12/27 04:06:17;;;;;;;3.15;2.22;;;15.20;61.90;;;;;;5115047;28;20593;-68
2023/12/27 04:08:43;;;;;;;2.40;2.20;;;15.20;61.90;;;;;;5114779;28;20587;-67
2023/12/27 04:11:09;;;;;;;2.47;2.28;;;15.20;61.90;;;;;;5114693;28;20181;-71
2023/12/27 04:13:34;;;;;;;3.05;2.28;;;15.20;62.00;;;;;;5113735;28;20169;-67
2023/12/27 04:16:00;;;;;;;2.47;2.25;;;15.20;62.00;;;;;;5113912;28;20174;-68
2023/12/27 04:18:25;;;;;;;2.67;2.35;;;15.20;62.10;;;;;;5114601;28;20176;-66
2023/12/27 04:20:51;;;;;;;2.63;2.42;;;15.10;61.90;;;;;;5114159;28;20211;-67
2023/12/27 04:23:16;;;;;;;3.53;2.33;;;15.20;62.00;;;;;;5114551;28;20203;-67
2023/12/27 04:25:42;;;;;;;2.25;2.05;;;15.10;62.00;;;;;;5114654;28;20652;-67
2023/12/27 04:28:08;;;;;;;2.70;2.50;;;15.10;62.20;;;;;;5114188;28;20169;-68
2023/12/27 04:30:33;;;;;;;2.30;2.10;;;15.20;62.10;;;;;;5114222;28;20168;-68
2023/12/27 04:32:59;;;;;;;2.80;2.38;;;15.20;62.20;;;;;;5114588;28;20177;-68
2023/12/27 04:35:24;;;;;;;2.33;2.13;;;15.20;62.20;;;;;;5113691;28;20172;-68
2023/12/27 04:37:50;;;;;;;2.47;2.28;;;15.20;62.20;;;;;;5113553;28;20815;-67
2023/12/27 04:40:15;;;;;;;2.28;1.98;;;15.10;62.10;;;;;;5114036;28;20209;-67
2023/12/27 04:42:41;;;;;;;2.08;1.98;;;15.10;62.20;;;;;;5113898;28;20178;-67
2023/12/27 04:45:07;;;;;;;3.00;2.58;;;15.10;62.10;;;;;;5114518;28;20177;-68
2023/12/27 04:47:33;;;;;;;3.33;2.20;;;15.10;62.20;;;;;;5114104;28;20181;-68
2023/12/27 04:49:58;;;;;;;2.30;2.10;;;15.10;62.20;;;;;;5113601;28;20168;-67
2023/12/27 04:52:24;;;;;;;2.40;2.20;;;15.10;62.20;;;;;;5113707;28;20217;-68
2023/12/27 04:54:49;;;;;;;4.40;2.15;;;15.10;62.20;;;;;;5114085;28;20195;-67
2023/12/27 04:57:15;;;;;;;2.35;2.10;;;15.10;62.20;;;;;;5113373;28;20177;-67
2023/12/27 04:59:40;;;;;;;3.38;2.65;;;15.10;62.20;;;;;;5114160;28;20222;-68
2023/12/27 05:02:06;;;;;;;2.33;2.05;;;15.10;62.20;;;;;;5114117;28;20177;-67
2023/12/27 05:04:31;;;;;;;2.75;2.47;;;15.10;62.30;;;;;;5113093;28;20176;-67
2023/12/27 05:06:57;;;;;;;2.53;2.33;;;15.10;62.30;;;;;;5113988;28;20583;-68
2023/12/27 05:09:23;;;;;;;2.13;1.88;;;15.10;62.30;;;;;;5112903;28;20677;-67
2023/12/27 05:11:49;;;;;;;3.58;2.38;;;15.10;62.30;;;;;;5113278;28;20185;-67
2023/12/27 05:14:17;;;;;;;2.25;2.05;;;15.10;62.30;;;;;;5112585;28;20183;-66
2023/12/27 05:16:46;;;;;;;2.97;2.17;;;15.10;63.20;;;;;;5112896;28;20599;-67
2023/12/27 05:19:11;;;;;;;2.30;2.10;;;15.10;62.40;;;;;;5113684;28;20262;-66
2023/12/27 05:21:37;;;;;;;2.72;2.22;;;15.00;62.20;;;;;;5113362;28;20173;-67
2023/12/27 05:24:02;;;;;;;2.22;1.90;;;15.10;62.30;;;;;;5112792;28;20177;-67
2023/12/27 05:26:28;;;;;;;2.58;2.10;;;15.00;62.40;;;;;;5113154;28;20165;-67
2023/12/27 05:28:53;;;;;;;2.40;2.20;;;15.00;62.40;;;;;;5113379;28;20191;-67
2023/12/27 05:31:19;;;;;;;2.63;2.05;;;15.00;62.40;;;;;;5112583;28;20165;-67
2023/12/27 05:33:47;;;;;;;2.85;1.85;;;15.00;62.40;;;;;;5113374;28;20702;-67
2023/12/27 05:36:13;;;;;;;2.47;2.08;;;15.00;62.40;;;;;;5113200;28;20648;-67
2023/12/27 05:38:38;;;;;;;2.65;2.03;;;15.00;62.40;;;;;;5112355;28;20204;-67
2023/12/27 05:41:04;;;;;;;2.53;2.33;;;15.00;62.50;;;;;;5113362;28;20612;-67
2023/12/27 05:43:30;;;;;;;2.30;2.10;;;15.00;62.50;;;;;;5113045;28;20169;-68
2023/12/27 05:45:56;;;;;;;4.00;2.58;;;15.00;62.50;;;;;;5112634;28;20170;-68
2023/12/27 05:48:21;;;;;;;3.47;2.13;;;15.00;62.50;;;;;;5112901;28;20172;-67
2023/12/27 05:50:47;;;;;;;4.10;2.10;;;15.00;62.50;;;;;;5113149;28;20200;-67
2023/12/27 05:53:12;;;;;;;1.92;1.83;;;15.10;62.50;;;;;;5112101;28;20620;-67
2023/12/27 05:55:38;;;;;;;4.03;1.92;;;15.10;62.40;;;;;;5112610;28;20917;-67
2023/12/27 05:58:03;;;;;;;2.17;1.85;;;15.10;62.30;;;;;;5113233;28;20180;-67
2023/12/27 06:00:32;;;;;;;2.97;1.92;;;15.20;62.30;;;;;;5111884;28;20216;-66
2023/12/27 06:02:57;;;;;;;2.20;2.00;;;15.20;62.20;;;;;;5112885;28;20531;-67
2023/12/27 06:05:23;;;;;;;2.78;2.13;;;15.40;62.10;;;;;;5112600;28;20696;-67
2023/12/27 06:07:49;;;;;;;4.30;2.40;;;15.40;62.10;;;;;;5112076;28;20179;-67
2023/12/27 06:10:14;;;;;;;2.28;1.92;;;15.50;62.10;;;;;;5112752;28;20260;-69
2023/12/27 06:12:40;;;;;;;1.70;1.60;;;15.50;62.20;;;;;;5112814;28;20173;-67
2023/12/27 06:15:07;;;;;;;3.25;1.75;;;15.60;62.00;;;;;;5112155;28;20173;-67
2023/12/27 06:17:32;;;;;;;3.72;2.17;;;15.60;61.90;;;;;;5112390;28;20181;-66
2023/12/27 06:19:58;;;;;;;3.33;1.95;;;15.70;61.80;;;;;;5111035;28;20212;-67
2023/12/27 06:22:24;;;;;;;2.38;2.00;;;15.70;61.70;;;;;;5112284;28;20531;-67
2023/12/27 06:24:49;;;;;;;1.70;1.60;;;15.80;61.70;;;;;;5112762;28;20180;-66
2023/12/27 06:27:15;;;;;;;2.20;1.70;;;15.80;61.60;;;;;;5111689;28;20185;-68
2023/12/27 06:29:41;;;;;;;2.08;1.80;;;15.90;61.60;;;;;;5112718;28;20173;-67
2023/12/27 06:32:07;;;;;;;2.28;1.83;;;15.90;61.40;;;;;;5112677;28;20197;-67
2023/12/27 06:34:32;;;;;;;2.38;2.03;;;15.90;61.30;;;;;;5111543;28;20257;-67
2023/12/27 06:36:58;;;;;;;2.20;2.00;;;15.90;61.20;;;;;;5112438;28;20260;-66
2023/12/27 06:39:23;;;;;;;2.10;1.85;;;16.00;61.20;;;;;;5112315;28;20575;-67
2023/12/27 06:41:49;;;;;;;2.28;1.63;;;16.00;61.10;;;;;;5111707;28;20246;-67
2023/12/27 06:44:14;;;;;;;2.20;2.00;;;16.00;61.00;;;;;;5111404;28;20177;-68
2023/12/27 06:46:40;;;;;;;2.45;1.80;;;16.00;61.00;;;;;;5112443;28;20185;-68
2023/12/27 06:49:06;;;;;;;2.20;1.75;;;16.10;61.10;;;;;;5111678;28;20260;-68
2023/12/27 06:51:31;;;;;;;2.10;1.77;;;16.20;61.00;;;;;;5111992;28;20302;-68
2023/12/27 06:53:57;;;;;;;3.22;1.65;;;16.30;60.90;;;;;;5112160;28;20220;-67
2023/12/27 06:56:22;;;;;;;1.83;1.73;;;16.50;60.60;;;;;;5111535;28;20256;-68
2023/12/27 06:58:48;;;;;;;1.63;1.50;;;16.60;60.20;;;;;;5112336;28;20691;-67
2023/12/27 07:01:16;;;;;;;2.25;1.50;;;16.80;60.00;;;;;;5112100;28;20226;-67
2023/12/27 07:03:42;;;;;;;2.33;1.83;;;16.80;59.80;;;;;;5111671;28;20201;-68
2023/12/27 07:06:07;;;;;;;1.55;1.45;;;16.90;59.70;;;;;;5112176;28;20200;-68
2023/12/27 07:08:34;;;;;;;2.75;1.55;;;17.00;59.70;;;;;;5093681;28;20987;-68
2023/12/27 07:10:59;;;;;;;3.85;1.75;;;16.90;59.60;;;;;;5111579;28;20330;-67
2023/12/27 07:13:25;;;;;;;2.05;1.38;;;17.00;59.60;;;;;;5111813;28;20268;-67
2023/12/27 07:15:50;;;;;;;2.67;1.85;;;17.00;59.50;;;;;;5112178;28;20174;-67
2023/12/27 07:18:16;;;;;;;2.42;1.85;;;17.10;59.50;;;;;;5111094;28;20184;-66
2023/12/27 07:20:41;;;;;;;2.45;1.80;;;17.10;59.40;;;;;;5111936;28;20226;-67
2023/12/27 07:23:07;;;;;;;1.80;1.67;;;17.10;59.40;;;;;;5112363;28;20181;-67
2023/12/27 07:25:33;;;;;;;1.88;1.38;;;17.10;59.40;;;;;;5111167;28;20691;-67
2023/12/27 07:27:58;;;;;;;1.77;1.60;;;17.20;59.40;;;;;;5111994;28;20178;-68
2023/12/27 07:30:24;;;;;;;3.13;1.83;;;17.20;59.40;;;;;;5111181;28;20177;-68
2023/12/27 07:32:49;;;;;;;3.08;1.90;;;17.10;59.40;;;;;;5115410;28;20169;-67
2023/12/27 07:35:15;;;;;;;3.22;1.88;;;17.20;59.50;;;;;;5115451;28;20222;-67
2023/12/27 07:37:42;;;;;;;2.95;1.80;;;17.20;59.50;;;;;;5114907;28;20173;-66
2023/12/27 07:40:09;;;;;;;1.98;1.73;;;17.20;59.40;;;;;;5115638;28;20212;-67
2023/12/27 07:42:34;;;;;;;2.40;1.70;;;17.20;59.40;;;;;;5115479;28;20177;-66
2023/12/27 07:45:00;;;;;;;1.70;1.40;;;17.20;59.50;;;;;;5114951;28;20177;-67
2023/12/27 07:47:25;;;;;;;1.70;1.50;;;17.20;59.50;;;;;;5115287;28;20173;-67
2023/12/27 07:49:51;;;;;;;3.40;2.03;;;17.20;59.50;;;;;;5115437;28;20169;-67
2023/12/27 07:52:17;;;;;;;1.98;1.65;;;17.20;59.50;;;;;;5114401;28;20580;-67
2023/12/27 07:54:43;;;;;;;1.95;1.70;;;17.20;59.50;;;;;;5115588;28;20259;-66
2023/12/27 07:57:08;;;;;;;2.17;1.50;;;17.20;59.40;;;;;;5115440;28;20261;-67
2023/12/27 07:59:34;;;;;;;3.03;2.05;;;17.20;59.40;;;;;;5114229;28;20321;-67
2023/12/27 08:02:00;;;;;;;2.63;1.80;;;17.30;59.60;;;;;;5115221;28;20169;-67
2023/12/27 08:04:26;;;;;;;2.20;1.73;;;17.30;59.50;;;;;;5114866;28;20173;-67
2023/12/27 08:06:52;;;;;;;2.63;2.10;;;17.30;59.70;;;;;;5114711;28;20179;-68
2023/12/27 08:09:18;;;;;;;2.10;1.83;;;17.20;59.50;;;;;;5115003;28;20207;-68
2023/12/27 08:11:43;;;;;;;3.08;1.65;;;17.30;59.50;;;;;;5115212;28;20185;-67
2023/12/27 08:14:09;;;;;;;2.53;1.77;;;17.30;59.50;;;;;;5113685;28;20184;-66
2023/12/27 08:16:34;;;;;;;3.00;2.20;;;17.30;59.60;;;;;;5113566;28;20218;-66
2023/12/27 08:19:00;;;;;;;2.35;1.85;;;17.30;59.50;;;;;;5114589;28;20243;-65
2023/12/27 08:21:25;;;;;;;2.35;2.00;;;17.30;59.50;;;;;;5114061;28;20188;-67
2023/12/27 08:23:51;;;;;;;2.17;1.98;;;17.30;59.50;;;;;;5114800;28;20539;-67
2023/12/27 08:26:16;;;;;;;2.22;1.70;;;17.30;59.40;;;;;;5114457;28;20169;-66
2023/12/27 08:28:42;;;;;;;2.03;1.80;;;17.30;59.50;;;;;;5113967;28;20181;-66
2023/12/27 08:31:07;;;;;;;3.22;1.90;;;17.30;59.40;;;;;;5114685;28;20173;-67
2023/12/27 08:33:35;;;;;;;2.63;1.70;;;17.30;59.60;;;;;;5113941;28;20477;-67
2023/12/27 08:36:01;;;;;;;2.60;1.80;;;17.30;59.40;;;;;;5114706;28;20184;-67
2023/12/27 08:38:27;;;;;;;2.38;1.85;;;17.30;59.50;;;;;;5113494;28;20527;-66
2023/12/27 08:40:53;;;;;;;4.53;2.35;;;17.30;59.60;;;;;;5113846;28;20274;-67
2023/12/27 08:43:18;;;;;;;2.55;1.60;;;17.30;59.50;;;;;;5113316;28;20698;-67
2023/12/27 08:45:45;;;;;;;2.38;1.77;;;17.30;59.60;;;;;;5114390;28;20639;-68
2023/12/27 08:48:10;;;;;;;3.42;2.03;;;17.20;59.60;;;;;;5113599;28;20173;-67
2023/12/27 08:50:36;;;;;;;1.73;1.63;;;17.20;59.60;;;;;;5114084;28;20189;-67
2023/12/27 08:53:02;;;;;;;1.55;1.40;;;17.20;59.60;;;;;;5114001;28;20687;-67
2023/12/27 08:55:27;;;;;;;2.90;1.80;;;17.10;59.60;;;;;;5113303;28;20189;-67
2023/12/27 08:57:53;;;;;;;2.85;1.70;;;17.10;59.80;;;;;;5114155;28;20180;-67
2023/12/27 09:00:19;;;;;;;2.45;1.80;;;17.10;59.90;;;;;;5113740;28;20292;-67
2023/12/27 09:02:47;;;;;;;2.50;1.90;;;17.00;59.90;;;;;;5113079;28;20252;-66
2023/12/27 09:05:13;;;;;;;2.22;2.00;;;17.00;60.10;;;;;;5113816;28;20591;-67
2023/12/27 09:07:39;;;;;;;2.78;1.75;;;17.00;60.10;;;;;;5114054;28;20177;-66
2023/12/27 09:10:04;;;;;;;2.15;1.50;;;17.00;60.30;;;;;;5113245;28;20180;-67
2023/12/27 09:12:30;;;;;;;2.67;1.70;;;17.00;60.20;;;;;;5113616;28;20169;-67
2023/12/27 09:14:55;;;;;;;1.60;1.50;;;17.00;60.30;;;;;;5113795;28;20663;-66
2023/12/27 09:17:21;;;;;;;3.03;1.48;;;17.00;60.30;;;;;;5112640;28;20539;-67
2023/12/27 09:19:47;;;;;;;2.42;2.03;;;17.00;60.30;;;;;;5113755;28;20668;-66
2023/12/27 09:22:12;;;;;;;2.22;1.85;;;17.00;60.20;;;;;;5113804;28;20669;-66
2023/12/27 09:24:38;;;;;;;2.30;1.67;;;17.00;60.20;;;;;;5112701;28;20315;-66
2023/12/27 09:27:04;;;;;;;2.15;1.65;;;17.10;60.30;;;;;;5113591;28;20173;-66
2023/12/27 09:29:32;;;;;;;1.48;1.38;;;17.00;60.20;;;;;;5113157;28;20172;-68
2023/12/27 09:31:58;;;;;;;2.08;1.90;;;17.00;60.30;;;;;;5112657;28;20196;-66
2023/12/27 09:34:23;;;;;;;2.13;1.42;;;17.10;60.30;;;;;;5113376;28;20165;-67
2023/12/27 09:36:49;;;;;;;3.20;1.80;;;17.10;60.30;;;;;;5113284;28;20616;-67
2023/12/27 09:39:17;;;;;;;2.22;1.80;;;17.00;60.20;;;;;;5112044;28;20193;-66
2023/12/27 09:41:43;;;;;;;2.88;1.63;;;17.10;60.40;;;;;;5113212;28;20184;-67
2023/12/27 09:44:11;;;;;;;2.17;1.60;;;17.00;60.30;;;;;;5112563;28;20681;-68
2023/12/27 09:46:38;;;;;;;1.90;1.67;;;16.90;60.50;;;;;;5094708;28;20594;-67
2023/12/27 09:49:04;;;;;;;2.30;1.70;;;16.90;60.60;;;;;;5095352;28;20252;-68
2023/12/27 09:51:30;;;;;;;1.63;1.52;;;16.80;60.70;;;;;;5112283;28;20252;-67
2023/12/27 09:53:55;;;;;;;2.22;1.52;;;16.90;60.70;;;;;;5094599;28;20736;-67
2023/12/27 09:56:24;;;;;;;1.45;1.30;;;16.90;60.70;;;;;;5094552;28;20670;-68
2023/12/27 09:58:52;;;;;;;1.67;1.42;;;16.90;60.70;;;;;;5112242;28;20537;-67
2023/12/27 10:01:18;;;;;;;2.13;1.75;;;16.90;60.80;;;;;;5112876;28;20545;-67
2023/12/27 10:03:43;;;;;;;2.55;1.52;;;16.90;60.70;;;;;;5094715;28;20176;-67
2023/12/27 10:06:20;;;;;;;1.42;1.33;;;16.90;60.70;;;;;;5077433;28;20176;-67
2023/12/27 10:08:46;;;;;;;2.13;1.88;;;17.00;60.60;;;;;;5112406;28;20183;-67
2023/12/27 10:11:11;;;;;;;2.30;1.70;;;17.00;60.60;;;;;;5112354;28;20173;-67
2023/12/27 10:13:38;;;;;;;2.63;1.83;;;16.90;60.60;;;;;;5092655;28;20172;-66
2023/12/27 10:16:04;;;;;;;1.70;1.55;;;16.90;60.60;;;;;;5112247;28;20229;-66
2023/12/27 10:18:32;;;;;;;1.92;1.35;;;16.80;60.70;;;;;;5110058;28;20177;-66
2023/12/27 10:20:58;;;;;;;1.77;1.35;;;16.80;60.80;;;;;;5111487;28;20300;-67
2023/12/27 10:23:24;;;;;;;2.08;1.75;;;16.80;60.80;;;;;;5111859;28;20177;-67
2023/12/27 10:25:51;;;;;;;2.30;1.55;;;16.80;61.00;;;;;;5112055;28;20537;-67
2023/12/27 10:28:17;;;;;;;2.13;1.60;;;16.80;61.10;;;;;;5111072;28;20271;-68
2023/12/27 10:30:44;;;;;;;2.67;2.00;;;16.80;61.00;;;;;;5112091;28;20218;-67
2023/12/27 10:33:09;;;;;;;1.50;1.40;;;16.80;61.10;;;;;;5111502;28;20169;-67
2023/12/27 10:35:38;;;;;;;1.90;1.70;;;16.80;61.00;;;;;;5111606;28;20176;-68
2023/12/27 10:38:06;;;;;;;1.58;1.48;;;16.80;61.00;;;;;;5111999;28;20181;-66
2023/12/27 10:40:35;;;;;;;2.42;1.63;;;16.80;60.90;;;;;;5109976;28;20205;-67
2023/12/27 10:43:01;;;;;;;3.35;1.88;;;16.80;61.00;;;;;;5111806;28;20169;-68
2023/12/27 10:45:26;;;;;;;1.77;1.25;;;16.80;61.00;;;;;;5111823;28;20180;-67
2023/12/27 10:48:06;;;;;;;1.67;1.50;;;16.70;61.00;;;;;;5111150;28;20169;-68
2023/12/27 10:50:33;;;;;;;1.50;1.25;;;16.70;61.20;;;;;;5095321;28;20274;-66
2023/12/27 10:53:08;;;;;;;1.23;1.13;;;16.70;61.30;;;;;;5111511;28;20228;-66
2023/12/27 10:55:34;;;;;;;1.50;1.40;;;16.60;61.30;;;;;;5111040;28;20190;-67
2023/12/27 10:58:01;;;;;;;1.50;1.35;;;16.60;61.40;;;;;;5111744;28;20202;-66
2023/12/27 11:00:27;;;;;;;1.77;1.30;;;16.60;61.40;;;;;;5111414;28;20273;-66
2023/12/27 11:02:53;;;;;;;2.90;1.67;;;16.70;61.40;;;;;;5093030;28;20644;-66
2023/12/27 11:05:20;;;;;;;1.92;1.23;;;16.70;61.30;;;;;;5093256;28;20215;-66
2023/12/27 11:07:46;;;;;;;1.67;1.23;;;16.70;61.30;;;;;;5115094;28;20632;-66
2023/12/27 11:10:14;;;;;;;1.17;1.10;;;16.70;61.30;;;;;;5096957;28;20188;-66
2023/12/27 11:12:39;;;;;;;2.25;1.20;;;16.70;61.30;;;;;;5097705;28;20173;-66
2023/12/27 11:15:06;;;;;;;1.70;1.38;;;16.70;61.40;;;;;;5115551;28;20195;-66
2023/12/27 11:17:31;;;;;;;1.42;1.33;;;16.60;61.50;;;;;;5079725;28;20177;-65
2023/12/27 11:19:57;;;;;;;1.25;1.15;;;16.60;61.60;;;;;;5097131;28;20200;-65
2023/12/27 11:22:23;;;;;;;1.50;1.40;;;16.60;61.70;;;;;;5079226;28;20559;-66
2023/12/27 11:24:48;;;;;;;1.40;1.30;;;16.60;61.80;;;;;;5115377;28;20169;-66
2023/12/27 11:27:17;;;;;;;1.85;1.55;;;16.60;61.90;;;;;;5115217;28;20185;-67
2023/12/27 11:29:43;;;;;;;1.35;1.15;;;16.60;61.90;;;;;;5114780;28;20265;-67
2023/12/27 11:32:08;;;;;;;1.20;1.00;;;16.60;61.80;;;;;;5097008;28;20169;-67
2023/12/27 11:34:34;;;;;;;1.65;1.55;;;16.60;61.80;;;;;;5096798;28;20181;-67
2023/12/27 11:37:00;;;;;;;1.55;1.35;;;16.60;61.80;;;;;;5096205;28;20181;-66
2023/12/27 11:39:28;;;;;;;1.55;1.45;;;16.60;61.80;;;;;;5096635;28;20193;-67
2023/12/27 11:41:54;;;;;;;1.90;1.17;;;16.50;61.80;;;;;;5096846;28;20181;-67
2023/12/27 11:44:19;;;;;;;1.25;1.13;;;16.50;61.90;;;;;;5114080;28;20704;-67
2023/12/27 11:46:45;;;;;;;2.15;1.17;;;16.50;61.90;;;;;;5115237;28;20173;-66
2023/12/27 11:49:20;;;;;;;1.35;1.25;;;16.50;62.00;;;;;;5114864;28;20203;-66
2023/12/27 11:51:45;;;;;;;1.30;1.20;;;16.50;62.00;;;;;;5114373;28;20173;-67
2023/12/27 11:54:23;;;;;;;1.42;1.20;;;16.40;62.00;;;;;;5114741;28;20631;-67
2023/12/27 11:56:48;;;;;;;2.42;1.48;;;16.50;62.10;;;;;;5114891;28;20526;-66
2023/12/27 11:59:14;;;;;;;1.33;1.20;;;16.50;62.10;;;;;;5095489;28;20628;-66
2023/12/27 12:01:40;;;;;;;1.50;1.40;;;16.50;62.00;;;;;;5079512;28;20281;-65
2023/12/27 12:04:19;;;;;;;1.40;1.30;;;16.50;62.00;;;;;;5114410;28;20176;-67
2023/12/27 12:06:54;;;;;;;1.30;1.15;;;16.50;62.00;;;;;;5095626;28;20648;-66
2023/12/27 12:09:37;;;;;;;1.13;1.02;;;16.50;62.10;;;;;;5114403;28;20247;-66
2023/12/27 12:12:19;;;;;;;1.40;1.27;;;16.50;62.10;;;;;;5113730;28;20204;-66
2023/12/27 12:14:54;;;;;;;1.52;1.40;;;16.50;62.20;;;;;;5114699;28;20639;-65
2023/12/27 12:17:20;;;;;;;1.38;1.27;;;16.40;62.20;;;;;;5113702;28;20187;-65
2023/12/27 12:19:46;;;;;;;1.30;1.20;;;16.40;62.20;;;;;;5113074;28;20209;-66
2023/12/27 12:22:12;;;;;;;1.63;1.50;;;16.40;62.30;;;;;;5113689;28;20215;-65
2023/12/27 12:24:39;;;;;;;1.50;1.40;;;16.40;62.30;;;;;;5114478;28;20169;-66
2023/12/27 12:27:04;;;;;;;1.80;1.65;;;16.40;62.30;;;;;;5095952;28;20711;-66
2023/12/27 12:29:30;;;;;;;1.02;0.95;;;16.40;62.20;;;;;;5096072;28;20174;-66
2023/12/27 12:31:55;;;;;;;1.40;1.30;;;16.40;62.20;;;;;;5114788;28;20210;-67
2023/12/27 12:34:22;;;;;;;1.17;1.05;;;16.40;62.20;;;;;;5113718;28;20173;-66
2023/12/27 12:36:47;;;;;;;1.20;1.10;;;16.40;62.20;;;;;;5114577;28;20197;-66
2023/12/27 12:39:14;;;;;;;1.30;1.20;;;16.40;62.30;;;;;;5114248;28;20258;-66
2023/12/27 12:41:40;;;;;;;1.30;1.15;;;16.40;62.40;;;;;;5113652;28;20644;-66